Decoded Metar for KMSS (MASSENA in NY, USA) (IATA:MSS) | Meteo·Mobile Aviation Weather
aviador You're here:

KMSS Decoded Metar

MASSENA in NY, USA
Report Time2020-02-22 21:53:00
UTC Time2020-02-22 22:42:50
Flight Rules vfr VFR
Wind240° at 15 Gusting to 22 kt
W.Decomp.*RWY 27: 14.4 kt HW 4.1 kt LCW
RWY 23: 13.7 kt HW 6.1 kt RCW
Visibility9999 m
Phenomena:N/A
Clouds:N/A
Expected CloudBase > 2,800 ft AGL from Temp-Dew spread
CeilingNone
Temp02°C (ISA -13)
Dew Point-5°C (60% RH)
AAT-6.0°C
QNH1018 hPa
Density Alt-1,424 ft
Elevation217 ft
Report Wrong Elevation
Raw Report
KMSS 222153Z AUTO 24015G22KT 10SM CLR 02/M05 A3007 RMK AO2 PK WND
21026/2129 SLP188 T00221050=

Extra information for KMSS:More info

Metar Taf Metar & Taf Last 4 Metars F.Rules Stats Wind Profile Meteogram Temp Stats Airport Information Weather charts Add Link Nearby VenuesMetar ALERT Operation Metar Decoded Social comments

AIRNAV info for KMSS